sensor_id;sensor_type;location;lat;lon;timestamp;pressure;altitude;pressure_sealevel;temperature;humidity
80892;BME280;70343;51.530;5.050;2024-03-22T00:01:50;102089.72;;;11.67;100.00
80892;BME280;70343;51.530;5.050;2024-03-22T00:04:16;102088.09;;;11.74;100.00
80892;BME280;70343;51.530;5.050;2024-03-22T00:06:43;102085.13;;;11.69;100.00
80892;BME280;70343;51.530;5.050;2024-03-22T00:09:12;102081.38;;;11.63;100.00
80892;BME280;70343;51.530;5.050;2024-03-22T00:11:39;102084.47;;;11.67;100.00
80892;BME280;70343;51.530;5.050;2024-03-22T00:14:04;102076.81;;;11.74;100.00
80892;BME280;70343;51.530;5.050;2024-03-22T00:16:30;102068.81;;;11.75;100.00
80892;BME280;70343;51.530;5.050;2024-03-22T00:18:55;102073.88;;;11.69;100.00
80892;BME280;70343;51.530;5.050;2024-03-22T00:21:22;102074.97;;;11.82;100.00
80892;BME280;70343;51.530;5.050;2024-03-22T00:23:47;102072.69;;;11.87;100.00
80892;BME280;70343;51.530;5.050;2024-03-22T00:26:13;102062.94;;;11.73;100.00
80892;BME280;70343;51.530;5.050;2024-03-22T00:28:38;102067.19;;;11.74;100.00
80892;BME280;70343;51.530;5.050;2024-03-22T00:31:04;102059.34;;;11.74;100.00
80892;BME280;70343;51.530;5.050;2024-03-22T00:33:29;102054.91;;;11.83;100.00
80892;BME280;70343;51.530;5.050;2024-03-22T00:35:55;102054.72;;;11.84;100.00
80892;BME280;70343;51.530;5.050;2024-03-22T00:38:20;102058.34;;;11.83;100.00
80892;BME280;70343;51.530;5.050;2024-03-22T00:40:46;102050.78;;;11.88;100.00
80892;BME280;70343;51.530;5.050;2024-03-22T00:43:11;102035.75;;;11.90;100.00
80892;BME280;70343;51.530;5.050;2024-03-22T00:45:37;102018.94;;;11.93;100.00
80892;BME280;70343;51.530;5.050;2024-03-22T00:48:02;102012.72;;;11.94;100.00
80892;BME280;70343;51.530;5.050;2024-03-22T00:50:28;102011.28;;;11.91;100.00
80892;BME280;70343;51.530;5.050;2024-03-22T00:52:54;101990.38;;;11.91;100.00
80892;BME280;70343;51.530;5.050;2024-03-22T00:55:23;101993.63;;;11.93;100.00
80892;BME280;70343;51.530;5.050;2024-03-22T00:57:49;101988.50;;;12.00;100.00
80892;BME280;70343;51.530;5.050;2024-03-22T01:00:15;101981.34;;;11.94;100.00
80892;BME280;70343;51.530;5.050;2024-03-22T01:02:41;101982.69;;;11.90;100.00
80892;BME280;70343;51.530;5.050;2024-03-22T01:05:07;101976.94;;;11.94;100.00
80892;BME280;70343;51.530;5.050;2024-03-22T01:07:33;101969.78;;;11.88;100.00
80892;BME280;70343;51.530;5.050;2024-03-22T01:09:58;101971.75;;;11.86;100.00
80892;BME280;70343;51.530;5.050;2024-03-22T01:12:25;101967.94;;;11.97;100.00
80892;BME280;70343;51.530;5.050;2024-03-22T01:14:50;101968.78;;;11.97;100.00
80892;BME280;70343;51.530;5.050;2024-03-22T01:17:16;101974.31;;;11.94;100.00
80892;BME280;70343;51.530;5.050;2024-03-22T01:19:41;101970.41;;;11.90;100.00
80892;BME280;70343;51.530;5.050;2024-03-22T01:22:07;101969.31;;;11.85;100.00
80892;BME280;70343;51.530;5.050;2024-03-22T01:24:32;101965.56;;;11.79;100.00
80892;BME280;70343;51.530;5.050;2024-03-22T01:26:57;101964.28;;;11.75;100.00
80892;BME280;70343;51.530;5.050;2024-03-22T01:29:23;101957.44;;;11.74;100.00
80892;BME280;70343;51.530;5.050;2024-03-22T01:31:49;101955.63;;;11.67;100.00
80892;BME280;70343;51.530;5.050;2024-03-22T01:34:14;101948.28;;;11.62;100.00
80892;BME280;70343;51.530;5.050;2024-03-22T01:36:40;101947.47;;;11.61;100.00
80892;BME280;70343;51.530;5.050;2024-03-22T01:39:05;101946.00;;;11.59;100.00
80892;BME280;70343;51.530;5.050;2024-03-22T01:41:31;101936.56;;;11.58;100.00
80892;BME280;70343;51.530;5.050;2024-03-22T01:43:58;101946.03;;;11.51;100.00
80892;BME280;70343;51.530;5.050;2024-03-22T01:46:23;101936.88;;;11.47;100.00
80892;BME280;70343;51.530;5.050;2024-03-22T01:48:49;101948.34;;;11.46;100.00
80892;BME280;70343;51.530;5.050;2024-03-22T01:51:15;101934.97;;;11.41;100.00
80892;BME280;70343;51.530;5.050;2024-03-22T01:53:41;101941.81;;;11.42;100.00
80892;BME280;70343;51.530;5.050;2024-03-22T01:56:07;101944.91;;;11.37;100.00
80892;BME280;70343;51.530;5.050;2024-03-22T01:58:33;101940.53;;;11.38;100.00
80892;BME280;70343;51.530;5.050;2024-03-22T02:00:58;101948.22;;;11.23;100.00
80892;BME280;70343;51.530;5.050;2024-03-22T02:03:23;101943.97;;;11.22;100.00
80892;BME280;70343;51.530;5.050;2024-03-22T02:05:49;101948.06;;;11.33;100.00
80892;BME280;70343;51.530;5.050;2024-03-22T02:08:14;101953.56;;;11.38;100.00
80892;BME280;70343;51.530;5.050;2024-03-22T02:10:40;101958.31;;;11.34;100.00
80892;BME280;70343;51.530;5.050;2024-03-22T02:13:05;101952.63;;;11.31;100.00
80892;BME280;70343;51.530;5.050;2024-03-22T02:15:31;101953.59;;;11.30;100.00
80892;BME280;70343;51.530;5.050;2024-03-22T02:17:57;101958.16;;;11.28;100.00
80892;BME280;70343;51.530;5.050;2024-03-22T02:20:22;101965.34;;;11.26;100.00
80892;BME280;70343;51.530;5.050;2024-03-22T02:22:48;101953.94;;;11.27;100.00
80892;BME280;70343;51.530;5.050;2024-03-22T02:25:13;101951.97;;;11.29;100.00
80892;BME280;70343;51.530;5.050;2024-03-22T02:27:39;101940.88;;;11.35;100.00
80892;BME280;70343;51.530;5.050;2024-03-22T02:30:05;101940.34;;;11.31;100.00
80892;BME280;70343;51.530;5.050;2024-03-22T02:32:30;101935.63;;;11.35;100.00
80892;BME280;70343;51.530;5.050;2024-03-22T02:34:56;101933.19;;;11.33;100.00
80892;BME280;70343;51.530;5.050;2024-03-22T02:37:21;101920.28;;;11.32;100.00
80892;BME280;70343;51.530;5.050;2024-03-22T02:39:47;101924.19;;;11.36;100.00
80892;BME280;70343;51.530;5.050;2024-03-22T02:42:12;101911.50;;;11.33;100.00
80892;BME280;70343;51.530;5.050;2024-03-22T02:44:38;101901.16;;;11.39;100.00
80892;BME280;70343;51.530;5.050;2024-03-22T02:47:09;101901.81;;;11.41;100.00
80892;BME280;70343;51.530;5.050;2024-03-22T02:49:34;101891.56;;;11.40;100.00
80892;BME280;70343;51.530;5.050;2024-03-22T02:52:00;101898.72;;;11.38;100.00
80892;BME280;70343;51.530;5.050;2024-03-22T02:54:25;101892.88;;;11.36;100.00
80892;BME280;70343;51.530;5.050;2024-03-22T02:56:51;101891.25;;;11.35;100.00
80892;BME280;70343;51.530;5.050;2024-03-22T02:59:16;101887.34;;;11.31;100.00
80892;BME280;70343;51.530;5.050;2024-03-22T03:01:42;101884.56;;;11.24;100.00
80892;BME280;70343;51.530;5.050;2024-03-22T03:04:07;101879.19;;;11.26;100.00
80892;BME280;70343;51.530;5.050;2024-03-22T03:06:33;101875.91;;;11.24;100.00
80892;BME280;70343;51.530;5.050;2024-03-22T03:08:58;101875.44;;;11.20;100.00
80892;BME280;70343;51.530;5.050;2024-03-22T03:11:24;101866.31;;;11.16;100.00
80892;BME280;70343;51.530;5.050;2024-03-22T03:13:49;101864.84;;;11.14;100.00
80892;BME280;70343;51.530;5.050;2024-03-22T03:16:14;101866.81;;;11.12;100.00
80892;BME280;70343;51.530;5.050;2024-03-22T03:18:40;101856.38;;;11.12;100.00
80892;BME280;70343;51.530;5.050;2024-03-22T03:21:06;101849.53;;;11.11;100.00
80892;BME280;70343;51.530;5.050;2024-03-22T03:23:32;101848.88;;;11.09;100.00
80892;BME280;70343;51.530;5.050;2024-03-22T03:25:57;101862.41;;;11.12;100.00
80892;BME280;70343;51.530;5.050;2024-03-22T03:28:23;101853.16;;;11.10;100.00
80892;BME280;70343;51.530;5.050;2024-03-22T03:30:51;101857.38;;;11.11;100.00
80892;BME280;70343;51.530;5.050;2024-03-22T03:33:16;101851.31;;;11.10;100.00
80892;BME280;70343;51.530;5.050;2024-03-22T03:35:45;101844.81;;;11.06;100.00
80892;BME280;70343;51.530;5.050;2024-03-22T03:38:11;101844.03;;;11.06;100.00
80892;BME280;70343;51.530;5.050;2024-03-22T03:40:37;101843.84;;;11.07;100.00
80892;BME280;70343;51.530;5.050;2024-03-22T03:43:02;101834.72;;;11.03;100.00
80892;BME280;70343;51.530;5.050;2024-03-22T03:45:28;101839.75;;;11.05;100.00
80892;BME280;70343;51.530;5.050;2024-03-22T03:47:53;101829.03;;;11.00;100.00
80892;BME280;70343;51.530;5.050;2024-03-22T03:50:19;101832.94;;;11.04;100.00
80892;BME280;70343;51.530;5.050;2024-03-22T03:52:44;101831.28;;;11.03;100.00
80892;BME280;70343;51.530;5.050;2024-03-22T03:55:10;101826.03;;;11.11;100.00
80892;BME280;70343;51.530;5.050;2024-03-22T03:57:35;101819.03;;;11.11;100.00
80892;BME280;70343;51.530;5.050;2024-03-22T04:00:01;101821.47;;;11.13;100.00
80892;BME280;70343;51.530;5.050;2024-03-22T04:02:27;101818.38;;;11.09;100.00
80892;BME280;70343;51.530;5.050;2024-03-22T04:04:53;101815.13;;;11.07;100.00
80892;BME280;70343;51.530;5.050;2024-03-22T04:07:20;101808.25;;;11.06;100.00
80892;BME280;70343;51.530;5.050;2024-03-22T04:09:45;101808.78;;;11.02;100.00
80892;BME280;70343;51.530;5.050;2024-03-22T04:12:11;101805.53;;;11.00;100.00
80892;BME280;70343;51.530;5.050;2024-03-22T04:14:36;101806.19;;;11.02;100.00
80892;BME280;70343;51.530;5.050;2024-03-22T04:17:01;101797.69;;;11.08;100.00
80892;BME280;70343;51.530;5.050;2024-03-22T04:19:27;101800.94;;;11.10;100.00
80892;BME280;70343;51.530;5.050;2024-03-22T04:21:52;101814.47;;;11.05;100.00
80892;BME280;70343;51.530;5.050;2024-03-22T04:24:18;101813.66;;;11.05;100.00
80892;BME280;70343;51.530;5.050;2024-03-22T04:26:43;101811.22;;;11.03;100.00
80892;BME280;70343;51.530;5.050;2024-03-22T04:29:09;101819.56;;;10.99;100.00
80892;BME280;70343;51.530;5.050;2024-03-22T04:31:35;101817.75;;;10.99;100.00
80892;BME280;70343;51.530;5.050;2024-03-22T04:34:00;101816.81;;;10.92;100.00
80892;BME280;70343;51.530;5.050;2024-03-22T04:36:26;101824.94;;;10.97;100.00
80892;BME280;70343;51.530;5.050;2024-03-22T04:38:52;101816.28;;;10.97;100.00
80892;BME280;70343;51.530;5.050;2024-03-22T04:41:17;101813.03;;;10.95;100.00
80892;BME280;70343;51.530;5.050;2024-03-22T04:43:43;101814.22;;;10.92;100.00
80892;BME280;70343;51.530;5.050;2024-03-22T04:46:08;101804.41;;;10.94;100.00
80892;BME280;70343;51.530;5.050;2024-03-22T04:48:34;101809.09;;;10.99;100.00
80892;BME280;70343;51.530;5.050;2024-03-22T04:50:59;101804.25;;;10.96;100.00
80892;BME280;70343;51.530;5.050;2024-03-22T04:53:25;101801.63;;;10.96;100.00
80892;BME280;70343;51.530;5.050;2024-03-22T04:55:50;101796.06;;;10.99;100.00
80892;BME280;70343;51.530;5.050;2024-03-22T04:58:20;101793.44;;;10.99;100.00
80892;BME280;70343;51.530;5.050;2024-03-22T05:00:47;101789.25;;;10.90;100.00
80892;BME280;70343;51.530;5.050;2024-03-22T05:03:13;101789.72;;;10.93;100.00
80892;BME280;70343;51.530;5.050;2024-03-22T05:05:40;101794.78;;;10.87;100.00
80892;BME280;70343;51.530;5.050;2024-03-22T05:08:06;101789.91;;;10.92;100.00
80892;BME280;70343;51.530;5.050;2024-03-22T05:10:32;101789.25;;;10.90;100.00
80892;BME280;70343;51.530;5.050;2024-03-22T05:12:58;101791.88;;;10.82;100.00
80892;BME280;70343;51.530;5.050;2024-03-22T05:15:24;101792.34;;;10.85;100.00
80892;BME280;70343;51.530;5.050;2024-03-22T05:17:54;101786.97;;;10.78;100.00
80892;BME280;70343;51.530;5.050;2024-03-22T05:20:20;101782.41;;;10.81;100.00
80892;BME280;70343;51.530;5.050;2024-03-22T05:22:47;101772.81;;;10.73;100.00
80892;BME280;70343;51.530;5.050;2024-03-22T05:25:13;101781.13;;;10.77;100.00
80892;BME280;70343;51.530;5.050;2024-03-22T05:27:40;101779.84;;;10.72;100.00
80892;BME280;70343;51.530;5.050;2024-03-22T05:30:08;101776.88;;;10.75;100.00
80892;BME280;70343;51.530;5.050;2024-03-22T05:32:33;101768.41;;;10.73;100.00
80892;BME280;70343;51.530;5.050;2024-03-22T05:34:59;101773.13;;;10.78;100.00
80892;BME280;70343;51.530;5.050;2024-03-22T05:37:24;101754.72;;;10.71;100.00
80892;BME280;70343;51.530;5.050;2024-03-22T05:39:50;101755.72;;;10.70;100.00
80892;BME280;70343;51.530;5.050;2024-03-22T05:42:15;101769.72;;;10.69;100.00
80892;BME280;70343;51.530;5.050;2024-03-22T05:44:41;101772.16;;;10.71;100.00
80892;BME280;70343;51.530;5.050;2024-03-22T05:47:06;101767.94;;;10.70;100.00
80892;BME280;70343;51.530;5.050;2024-03-22T05:49:32;101775.28;;;10.74;100.00
80892;BME280;70343;51.530;5.050;2024-03-22T05:51:57;101767.75;;;10.71;100.00
80892;BME280;70343;51.530;5.050;2024-03-22T05:54:23;101767.44;;;10.74;100.00
80892;BME280;70343;51.530;5.050;2024-03-22T05:56:49;101765.16;;;10.71;100.00
80892;BME280;70343;51.530;5.050;2024-03-22T05:59:14;101767.28;;;10.68;100.00
80892;BME280;70343;51.530;5.050;2024-03-22T06:01:39;101766.28;;;10.77;100.00
80892;BME280;70343;51.530;5.050;2024-03-22T06:04:05;101760.59;;;10.73;100.00
80892;BME280;70343;51.530;5.050;2024-03-22T06:06:34;101752.75;;;10.73;100.00
80892;BME280;70343;51.530;5.050;2024-03-22T06:09:00;101759.75;;;10.73;100.00
80892;BME280;70343;51.530;5.050;2024-03-22T06:11:29;101751.47;;;10.69;100.00
80892;BME280;70343;51.530;5.050;2024-03-22T06:13:55;101754.41;;;10.74;100.00
80892;BME280;70343;51.530;5.050;2024-03-22T06:16:20;101757.81;;;10.75;100.00
80892;BME280;70343;51.530;5.050;2024-03-22T06:18:45;101756.50;;;10.71;100.00
80892;BME280;70343;51.530;5.050;2024-03-22T06:21:11;101758.31;;;10.70;100.00
80892;BME280;70343;51.530;5.050;2024-03-22T06:23:39;101763.03;;;10.75;100.00
80892;BME280;70343;51.530;5.050;2024-03-22T06:26:05;101762.53;;;10.80;100.00
80892;BME280;70343;51.530;5.050;2024-03-22T06:28:30;101754.03;;;10.86;100.00
80892;BME280;70343;51.530;5.050;2024-03-22T06:30:56;101757.59;;;10.85;100.00
80892;BME280;70343;51.530;5.050;2024-03-22T06:33:21;101759.72;;;10.89;100.00
80892;BME280;70343;51.530;5.050;2024-03-22T06:35:47;101754.84;;;10.94;100.00
80892;BME280;70343;51.530;5.050;2024-03-22T06:38:12;101761.28;;;11.06;100.00
80892;BME280;70343;51.530;5.050;2024-03-22T06:40:38;101750.69;;;11.08;100.00
80892;BME280;70343;51.530;5.050;2024-03-22T06:43:03;101752.97;;;11.11;100.00
80892;BME280;70343;51.530;5.050;2024-03-22T06:45:29;101751.28;;;11.18;100.00
80892;BME280;70343;51.530;5.050;2024-03-22T06:47:55;101755.75;;;11.09;100.00
80892;BME280;70343;51.530;5.050;2024-03-22T06:50:20;101756.56;;;11.10;100.00
80892;BME280;70343;51.530;5.050;2024-03-22T06:52:52;101755.88;;;11.16;100.00
80892;BME280;70343;51.530;5.050;2024-03-22T06:55:19;101755.16;;;11.30;100.00
80892;BME280;70343;51.530;5.050;2024-03-22T06:57:48;101754.47;;;11.36;100.00
80892;BME280;70343;51.530;5.050;2024-03-22T07:00:14;101752.63;;;11.44;100.00
80892;BME280;70343;51.530;5.050;2024-03-22T07:02:40;101762.25;;;11.44;100.00
80892;BME280;70343;51.530;5.050;2024-03-22T07:05:06;101747.19;;;11.54;100.00
80892;BME280;70343;51.530;5.050;2024-03-22T07:07:32;101760.53;;;11.59;100.00
80892;BME280;70343;51.530;5.050;2024-03-22T07:09:58;101751.78;;;11.52;100.00
80892;BME280;70343;51.530;5.050;2024-03-22T07:12:23;101737.44;;;11.48;100.00
80892;BME280;70343;51.530;5.050;2024-03-22T07:14:49;101748.16;;;11.53;100.00
80892;BME280;70343;51.530;5.050;2024-03-22T07:17:14;101741.00;;;11.47;100.00
80892;BME280;70343;51.530;5.050;2024-03-22T07:19:40;101749.50;;;11.49;100.00
80892;BME280;70343;51.530;5.050;2024-03-22T07:22:06;101747.19;;;11.54;100.00
80892;BME280;70343;51.530;5.050;2024-03-22T07:24:32;101751.72;;;11.60;100.00
80892;BME280;70343;51.530;5.050;2024-03-22T07:26:57;101745.47;;;11.69;100.00
80892;BME280;70343;51.530;5.050;2024-03-22T07:29:23;101749.09;;;11.68;100.00
80892;BME280;70343;51.530;5.050;2024-03-22T07:31:48;101746.25;;;11.78;100.00
80892;BME280;70343;51.530;5.050;2024-03-22T07:34:14;101747.69;;;11.80;100.00
80892;BME280;70343;51.530;5.050;2024-03-22T07:36:40;101745.31;;;11.93;100.00
80892;BME280;70343;51.530;5.050;2024-03-22T07:39:06;101736.41;;;12.02;100.00
80892;BME280;70343;51.530;5.050;2024-03-22T07:41:33;101728.25;;;12.20;100.00
80892;BME280;70343;51.530;5.050;2024-03-22T07:44:01;101736.66;;;12.30;100.00
80892;BME280;70343;51.530;5.050;2024-03-22T07:46:28;101742.00;;;12.36;100.00
80892;BME280;70343;51.530;5.050;2024-03-22T07:48:54;101735.31;;;12.48;100.00
80892;BME280;70343;51.530;5.050;2024-03-22T07:51:20;101731.63;;;12.43;100.00
80892;BME280;70343;51.530;5.050;2024-03-22T07:53:46;101742.09;;;12.43;100.00
80892;BME280;70343;51.530;5.050;2024-03-22T07:56:11;101744.69;;;12.43;100.00
80892;BME280;70343;51.530;5.050;2024-03-22T07:58:38;101745.97;;;12.32;100.00
80892;BME280;70343;51.530;5.050;2024-03-22T08:01:04;101737.41;;;12.38;100.00
80892;BME280;70343;51.530;5.050;2024-03-22T08:03:29;101743.13;;;12.19;100.00
80892;BME280;70343;51.530;5.050;2024-03-22T08:05:55;101744.25;;;12.02;100.00
80892;BME280;70343;51.530;5.050;2024-03-22T08:08:20;101743.97;;;11.97;100.00
80892;BME280;70343;51.530;5.050;2024-03-22T08:10:46;101752.91;;;12.03;100.00
80892;BME280;70343;51.530;5.050;2024-03-22T08:13:11;101737.13;;;11.96;100.00
80892;BME280;70343;51.530;5.050;2024-03-22T08:15:37;101747.38;;;11.98;100.00
80892;BME280;70343;51.530;5.050;2024-03-22T08:18:02;101745.59;;;11.98;100.00
80892;BME280;70343;51.530;5.050;2024-03-22T08:20:28;101739.50;;;11.83;100.00
80892;BME280;70343;51.530;5.050;2024-03-22T08:22:54;101760.31;;;11.99;100.00
80892;BME280;70343;51.530;5.050;2024-03-22T08:25:19;101755.41;;;11.96;100.00
80892;BME280;70343;51.530;5.050;2024-03-22T08:27:46;101749.84;;;11.99;100.00
80892;BME280;70343;51.530;5.050;2024-03-22T08:30:12;101753.31;;;12.14;100.00
80892;BME280;70343;51.530;5.050;2024-03-22T08:32:38;101746.81;;;12.10;100.00
80892;BME280;70343;51.530;5.050;2024-03-22T08:35:04;101736.09;;;12.20;100.00
80892;BME280;70343;51.530;5.050;2024-03-22T08:37:30;101735.56;;;12.24;100.00
80892;BME280;70343;51.530;5.050;2024-03-22T08:39:56;101727.91;;;12.23;100.00
80892;BME280;70343;51.530;5.050;2024-03-22T08:42:21;101724.31;;;12.24;100.00
80892;BME280;70343;51.530;5.050;2024-03-22T08:44:47;101714.38;;;12.19;100.00
80892;BME280;70343;51.530;5.050;2024-03-22T08:47:12;101726.38;;;12.28;100.00
80892;BME280;70343;51.530;5.050;2024-03-22T08:49:39;101726.31;;;12.36;100.00
80892;BME280;70343;51.530;5.050;2024-03-22T08:52:06;101721.50;;;12.25;100.00
80892;BME280;70343;51.530;5.050;2024-03-22T08:54:32;101717.47;;;12.23;100.00
80892;BME280;70343;51.530;5.050;2024-03-22T08:56:57;101722.50;;;12.24;100.00
80892;BME280;70343;51.530;5.050;2024-03-22T08:59:23;101716.50;;;12.38;100.00
80892;BME280;70343;51.530;5.050;2024-03-22T09:01:49;101721.72;;;12.38;100.00
80892;BME280;70343;51.530;5.050;2024-03-22T09:04:15;101721.16;;;12.28;100.00
80892;BME280;70343;51.530;5.050;2024-03-22T09:06:40;101720.22;;;12.21;100.00
80892;BME280;70343;51.530;5.050;2024-03-22T09:09:06;101724.03;;;12.19;100.00
80892;BME280;70343;51.530;5.050;2024-03-22T09:11:33;101716.28;;;12.25;100.00
80892;BME280;70343;51.530;5.050;2024-03-22T09:13:58;101732.66;;;12.19;100.00
80892;BME280;70343;51.530;5.050;2024-03-22T09:16:24;101723.63;;;12.07;100.00
80892;BME280;70343;51.530;5.050;2024-03-22T09:18:49;101718.38;;;12.07;100.00
80892;BME280;70343;51.530;5.050;2024-03-22T09:21:15;101713.16;;;12.07;100.00
80892;BME280;70343;51.530;5.050;2024-03-22T09:23:40;101708.81;;;12.00;100.00
80892;BME280;70343;51.530;5.050;2024-03-22T09:26:06;101715.44;;;12.10;100.00
80892;BME280;70343;51.530;5.050;2024-03-22T09:28:31;101703.91;;;12.19;100.00
80892;BME280;70343;51.530;5.050;2024-03-22T09:30:57;101711.47;;;12.14;100.00
80892;BME280;70343;51.530;5.050;2024-03-22T09:33:22;101699.38;;;12.13;100.00
80892;BME280;70343;51.530;5.050;2024-03-22T09:35:48;101704.91;;;12.18;100.00
80892;BME280;70343;51.530;5.050;2024-03-22T09:38:13;101697.50;;;12.22;100.00
80892;BME280;70343;51.530;5.050;2024-03-22T09:40:41;101694.78;;;12.15;100.00
80892;BME280;70343;51.530;5.050;2024-03-22T09:43:07;101693.56;;;12.26;100.00
80892;BME280;70343;51.530;5.050;2024-03-22T09:45:33;101699.59;;;12.26;100.00
80892;BME280;70343;51.530;5.050;2024-03-22T09:47:59;101680.59;;;12.32;100.00
80892;BME280;70343;51.530;5.050;2024-03-22T09:50:26;101694.75;;;12.38;100.00
80892;BME280;70343;51.530;5.050;2024-03-22T09:52:56;101693.09;;;12.37;100.00
80892;BME280;70343;51.530;5.050;2024-03-22T09:55:23;101692.38;;;12.43;100.00
80892;BME280;70343;51.530;5.050;2024-03-22T09:57:49;101691.84;;;12.47;100.00
80892;BME280;70343;51.530;5.050;2024-03-22T10:00:19;101685.63;;;12.48;100.00
80892;BME280;70343;51.530;5.050;2024-03-22T10:02:48;101683.00;;;12.48;100.00
80892;BME280;70343;51.530;5.050;2024-03-22T10:05:14;101693.75;;;12.53;100.00
80892;BME280;70343;51.530;5.050;2024-03-22T10:07:41;101685.91;;;12.53;100.00
80892;BME280;70343;51.530;5.050;2024-03-22T10:10:07;101690.06;;;12.48;100.00
80892;BME280;70343;51.530;5.050;2024-03-22T10:12:33;101692.50;;;12.49;100.00
80892;BME280;70343;51.530;5.050;2024-03-22T10:14:58;101695.75;;;12.51;100.00
80892;BME280;70343;51.530;5.050;2024-03-22T10:17:26;101701.31;;;12.48;100.00
80892;BME280;70343;51.530;5.050;2024-03-22T10:19:52;101693.66;;;12.62;100.00
80892;BME280;70343;51.530;5.050;2024-03-22T10:22:18;101686.06;;;12.37;100.00
80892;BME280;70343;51.530;5.050;2024-03-22T10:24:44;101695.56;;;12.38;100.00
80892;BME280;70343;51.530;5.050;2024-03-22T10:27:09;101695.09;;;12.49;100.00
80892;BME280;70343;51.530;5.050;2024-03-22T10:29:38;101701.25;;;12.42;100.00
80892;BME280;70343;51.530;5.050;2024-03-22T10:32:04;101697.44;;;12.30;100.00
80892;BME280;70343;51.530;5.050;2024-03-22T10:34:31;101698.59;;;12.27;100.00
80892;BME280;70343;51.530;5.050;2024-03-22T10:37:00;101694.72;;;12.23;100.00
80892;BME280;70343;51.530;5.050;2024-03-22T10:39:26;101694.44;;;12.18;100.00
80892;BME280;70343;51.530;5.050;2024-03-22T10:41:52;101702.56;;;12.23;100.00
80892;BME280;70343;51.530;5.050;2024-03-22T10:44:18;101703.56;;;12.22;100.00
80892;BME280;70343;51.530;5.050;2024-03-22T10:46:48;101698.59;;;12.13;100.00
80892;BME280;70343;51.530;5.050;2024-03-22T10:49:18;101697.00;;;12.26;100.00
80892;BME280;70343;51.530;5.050;2024-03-22T10:51:58;101704.09;;;12.18;100.00
80892;BME280;70343;51.530;5.050;2024-03-22T10:54:30;101696.16;;;12.26;100.00
80892;BME280;70343;51.530;5.050;2024-03-22T10:56:57;101695.28;;;12.33;100.00
80892;BME280;70343;51.530;5.050;2024-03-22T10:59:23;101688.13;;;12.27;100.00
80892;BME280;70343;51.530;5.050;2024-03-22T11:01:49;101685.53;;;12.27;100.00
80892;BME280;70343;51.530;5.050;2024-03-22T11:04:17;101694.81;;;12.44;100.00
80892;BME280;70343;51.530;5.050;2024-03-22T11:06:49;101692.31;;;12.36;100.00
80892;BME280;70343;51.530;5.050;2024-03-22T11:09:21;101698.19;;;12.38;100.00
80892;BME280;70343;51.530;5.050;2024-03-22T11:11:47;101694.94;;;12.36;100.00
80892;BME280;70343;51.530;5.050;2024-03-22T11:14:12;101683.91;;;12.26;100.00
80892;BME280;70343;51.530;5.050;2024-03-22T11:16:38;101689.56;;;12.15;100.00
80892;BME280;70343;51.530;5.050;2024-03-22T11:19:04;101690.25;;;12.09;100.00
80892;BME280;70343;51.530;5.050;2024-03-22T11:21:32;101685.78;;;12.18;100.00
80892;BME280;70343;51.530;5.050;2024-03-22T11:24:00;101679.81;;;12.09;100.00
80892;BME280;70343;51.530;5.050;2024-03-22T11:26:26;101677.63;;;11.98;100.00
80892;BME280;70343;51.530;5.050;2024-03-22T11:28:51;101674.38;;;11.96;100.00
80892;BME280;70343;51.530;5.050;2024-03-22T11:31:17;101672.41;;;11.98;100.00
80892;BME280;70343;51.530;5.050;2024-03-22T11:33:44;101658.91;;;12.09;100.00
80892;BME280;70343;51.530;5.050;2024-03-22T11:36:09;101663.94;;;11.96;100.00
80892;BME280;70343;51.530;5.050;2024-03-22T11:38:35;101665.56;;;11.97;100.00
80892;BME280;70343;51.530;5.050;2024-03-22T11:41:01;101660.34;;;11.97;100.00
80892;BME280;70343;51.530;5.050;2024-03-22T11:43:28;101656.19;;;12.03;100.00
80892;BME280;70343;51.530;5.050;2024-03-22T11:45:55;101653.47;;;11.96;100.00
80892;BME280;70343;51.530;5.050;2024-03-22T11:48:21;101650.59;;;11.91;100.00
80892;BME280;70343;51.530;5.050;2024-03-22T11:50:48;101650.59;;;11.91;100.00
80892;BME280;70343;51.530;5.050;2024-03-22T11:53:16;101649.19;;;12.03;100.00
80892;BME280;70343;51.530;5.050;2024-03-22T11:55:41;101659.91;;;12.08;100.00
80892;BME280;70343;51.530;5.050;2024-03-22T11:58:09;101647.53;;;12.02;100.00
80892;BME280;70343;51.530;5.050;2024-03-22T12:00:35;101640.25;;;12.12;100.00
80892;BME280;70343;51.530;5.050;2024-03-22T12:03:04;101637.78;;;11.96;100.00
80892;BME280;70343;51.530;5.050;2024-03-22T12:05:29;101633.28;;;11.90;100.00
80892;BME280;70343;51.530;5.050;2024-03-22T12:07:55;101620.19;;;11.76;100.00
80892;BME280;70343;51.530;5.050;2024-03-22T12:10:21;101616.16;;;11.88;100.00
80892;BME280;70343;51.530;5.050;2024-03-22T12:12:46;101614.34;;;11.88;100.00
80892;BME280;70343;51.530;5.050;2024-03-22T12:15:12;101606.50;;;11.88;100.00
80892;BME280;70343;51.530;5.050;2024-03-22T12:17:37;101596.88;;;11.89;100.00
80892;BME280;70343;51.530;5.050;2024-03-22T12:20:06;101610.38;;;11.92;100.00
80892;BME280;70343;51.530;5.050;2024-03-22T12:22:34;101609.13;;;11.88;100.00
80892;BME280;70343;51.530;5.050;2024-03-22T12:24:59;101597.69;;;11.89;100.00
80892;BME280;70343;51.530;5.050;2024-03-22T12:27:25;101594.09;;;12.05;100.00
80892;BME280;70343;51.530;5.050;2024-03-22T12:29:50;101590.47;;;12.06;100.00
80892;BME280;70343;51.530;5.050;2024-03-22T12:32:16;101585.97;;;12.00;100.00
80892;BME280;70343;51.530;5.050;2024-03-22T12:34:41;101587.06;;;12.05;100.00